LFBP/PUF METAR and TAF weather

Enter ICAO airport designator
Station Type Date Time Source
LFBP METAR 2020/01/20 10:00 UTC NOAA

LFBP 201000Z AUTO 06006KT 030V090 9999 FEW076 02/M02 Q1035 NOSIG


Station Type Date Time Source
LFBP Decoded METAR 2020/01/20 10:00 UTC NOAA

Pau, France (LFBP) 43-23N 000-25W 185M
Jan 20, 2020 - 05:00 AM EST / 2020.01.20 1000 UTC
Wind: from the ENE (060 degrees) at 7 MPH (6 KT) (direction variable):0
Visibility: greater than 7 mile(s):0
Sky conditions: mostly clear
Temperature: 35 F (2 C)
Windchill: 28 F (-2 C):1
Dew Point: 28 F (-2 C)
Relative Humidity: 74%
Pressure (altimeter): 30.56 in. Hg (1035 hPa)
ob: LFBP 201000Z AUTO 06006KT 030V090 9999 FEW076 02/M02 Q1035 NOSIG
cycle: 10

Station Type Date Time Source
LFBP TAF 2020/01/20 06:46 UTC NOAA

TAF LFBP 200500Z 2006/2106 VRB02KT CAVOK
TEMPO 2006/2009 BKN050
BECMG 2012/2014 07010KT
BECMG 2102/2104 BKN014

Example: see airport list